sensor_id;sensor_type;location;lat;lon;timestamp;temperature;humidity
16829;DHT22;8531;48.078;11.968;2024-03-22T00:01:45;7.60;99.90
16829;DHT22;8531;48.078;11.968;2024-03-22T00:04:12;7.60;99.90
16829;DHT22;8531;48.078;11.968;2024-03-22T00:06:38;7.50;99.90
16829;DHT22;8531;48.078;11.968;2024-03-22T00:09:04;7.50;99.90
16829;DHT22;8531;48.078;11.968;2024-03-22T00:11:29;7.40;99.90
16829;DHT22;8531;48.078;11.968;2024-03-22T00:13:55;7.30;99.90
16829;DHT22;8531;48.078;11.968;2024-03-22T00:16:21;7.30;99.90
16829;DHT22;8531;48.078;11.968;2024-03-22T00:18:46;7.40;99.90
16829;DHT22;8531;48.078;11.968;2024-03-22T00:21:12;7.40;99.90
16829;DHT22;8531;48.078;11.968;2024-03-22T00:23:37;7.30;99.90
16829;DHT22;8531;48.078;11.968;2024-03-22T00:26:03;7.30;99.90
16829;DHT22;8531;48.078;11.968;2024-03-22T00:28:29;7.20;99.90
16829;DHT22;8531;48.078;11.968;2024-03-22T00:30:54;7.30;99.90
16829;DHT22;8531;48.078;11.968;2024-03-22T00:33:20;7.30;99.90
16829;DHT22;8531;48.078;11.968;2024-03-22T00:35:46;7.20;99.90
16829;DHT22;8531;48.078;11.968;2024-03-22T00:38:11;7.20;99.90
16829;DHT22;8531;48.078;11.968;2024-03-22T00:40:37;7.10;99.90
16829;DHT22;8531;48.078;11.968;2024-03-22T00:43:03;7.20;99.90
16829;DHT22;8531;48.078;11.968;2024-03-22T00:45:28;7.10;99.90
16829;DHT22;8531;48.078;11.968;2024-03-22T00:47:54;7.10;99.90
16829;DHT22;8531;48.078;11.968;2024-03-22T00:50:20;7.10;99.90
16829;DHT22;8531;48.078;11.968;2024-03-22T00:52:45;7.00;99.90
16829;DHT22;8531;48.078;11.968;2024-03-22T00:55:11;7.00;99.90
16829;DHT22;8531;48.078;11.968;2024-03-22T00:57:37;7.00;99.90
16829;DHT22;8531;48.078;11.968;2024-03-22T01:00:02;7.10;99.90
16829;DHT22;8531;48.078;11.968;2024-03-22T01:02:30;7.00;99.90
16829;DHT22;8531;48.078;11.968;2024-03-22T01:04:55;6.90;99.90
16829;DHT22;8531;48.078;11.968;2024-03-22T01:07:21;6.90;99.90
16829;DHT22;8531;48.078;11.968;2024-03-22T01:09:46;6.90;99.90
16829;DHT22;8531;48.078;11.968;2024-03-22T01:12:12;6.80;99.90
16829;DHT22;8531;48.078;11.968;2024-03-22T01:14:38;6.80;99.90
16829;DHT22;8531;48.078;11.968;2024-03-22T01:17:03;6.80;99.90
16829;DHT22;8531;48.078;11.968;2024-03-22T01:19:29;6.70;99.90
16829;DHT22;8531;48.078;11.968;2024-03-22T01:21:55;6.70;99.90
16829;DHT22;8531;48.078;11.968;2024-03-22T01:24:20;6.70;99.90
16829;DHT22;8531;48.078;11.968;2024-03-22T01:26:46;6.70;99.90
16829;DHT22;8531;48.078;11.968;2024-03-22T01:29:13;6.70;99.90
16829;DHT22;8531;48.078;11.968;2024-03-22T01:31:39;6.70;99.90
16829;DHT22;8531;48.078;11.968;2024-03-22T01:34:05;6.70;99.90
16829;DHT22;8531;48.078;11.968;2024-03-22T01:36:30;6.70;99.90
16829;DHT22;8531;48.078;11.968;2024-03-22T01:38:57;6.70;99.90
16829;DHT22;8531;48.078;11.968;2024-03-22T01:41:22;6.60;99.90
16829;DHT22;8531;48.078;11.968;2024-03-22T01:43:48;6.60;99.90
16829;DHT22;8531;48.078;11.968;2024-03-22T01:46:14;6.60;99.90
16829;DHT22;8531;48.078;11.968;2024-03-22T01:48:40;6.60;99.90
16829;DHT22;8531;48.078;11.968;2024-03-22T01:51:06;6.60;99.90
16829;DHT22;8531;48.078;11.968;2024-03-22T01:53:32;6.60;99.90
16829;DHT22;8531;48.078;11.968;2024-03-22T01:56:00;6.50;99.90
16829;DHT22;8531;48.078;11.968;2024-03-22T01:58:26;6.50;99.90
16829;DHT22;8531;48.078;11.968;2024-03-22T02:00:51;6.50;99.90
16829;DHT22;8531;48.078;11.968;2024-03-22T02:03:17;6.50;99.90
16829;DHT22;8531;48.078;11.968;2024-03-22T02:05:43;6.40;99.90
16829;DHT22;8531;48.078;11.968;2024-03-22T02:08:08;6.40;99.90
16829;DHT22;8531;48.078;11.968;2024-03-22T02:10:34;6.40;99.90
16829;DHT22;8531;48.078;11.968;2024-03-22T02:13:00;6.40;99.90
16829;DHT22;8531;48.078;11.968;2024-03-22T02:15:26;6.40;99.90
16829;DHT22;8531;48.078;11.968;2024-03-22T02:17:51;6.30;99.90
16829;DHT22;8531;48.078;11.968;2024-03-22T02:20:17;6.40;99.90
16829;DHT22;8531;48.078;11.968;2024-03-22T02:22:43;6.40;99.90
16829;DHT22;8531;48.078;11.968;2024-03-22T02:25:08;6.30;99.90
16829;DHT22;8531;48.078;11.968;2024-03-22T02:27:34;6.30;99.90
16829;DHT22;8531;48.078;11.968;2024-03-22T02:30:00;6.30;99.90
16829;DHT22;8531;48.078;11.968;2024-03-22T02:32:27;6.30;99.90
16829;DHT22;8531;48.078;11.968;2024-03-22T02:34:53;6.20;99.90
16829;DHT22;8531;48.078;11.968;2024-03-22T02:37:18;6.20;99.90
16829;DHT22;8531;48.078;11.968;2024-03-22T02:39:44;6.10;99.90
16829;DHT22;8531;48.078;11.968;2024-03-22T02:42:09;6.10;99.90
16829;DHT22;8531;48.078;11.968;2024-03-22T02:44:35;6.20;99.90
16829;DHT22;8531;48.078;11.968;2024-03-22T02:47:04;6.20;99.90
16829;DHT22;8531;48.078;11.968;2024-03-22T02:49:29;6.10;99.90
16829;DHT22;8531;48.078;11.968;2024-03-22T02:51:55;6.10;99.90
16829;DHT22;8531;48.078;11.968;2024-03-22T02:54:21;6.10;99.90
16829;DHT22;8531;48.078;11.968;2024-03-22T02:56:46;6.00;99.90
16829;DHT22;8531;48.078;11.968;2024-03-22T02:59:12;6.00;99.90
16829;DHT22;8531;48.078;11.968;2024-03-22T03:01:37;5.90;99.90
16829;DHT22;8531;48.078;11.968;2024-03-22T03:04:03;5.90;99.90
16829;DHT22;8531;48.078;11.968;2024-03-22T03:06:29;5.80;99.90
16829;DHT22;8531;48.078;11.968;2024-03-22T03:08:54;5.90;99.90
16829;DHT22;8531;48.078;11.968;2024-03-22T03:11:20;5.80;99.90
16829;DHT22;8531;48.078;11.968;2024-03-22T03:13:45;5.80;99.90
16829;DHT22;8531;48.078;11.968;2024-03-22T03:16:11;5.80;99.90
16829;DHT22;8531;48.078;11.968;2024-03-22T03:18:37;5.80;99.90
16829;DHT22;8531;48.078;11.968;2024-03-22T03:21:02;5.80;99.90
16829;DHT22;8531;48.078;11.968;2024-03-22T03:23:28;5.70;99.90
16829;DHT22;8531;48.078;11.968;2024-03-22T03:25:54;5.70;99.90
16829;DHT22;8531;48.078;11.968;2024-03-22T03:28:19;5.70;99.90
16829;DHT22;8531;48.078;11.968;2024-03-22T03:30:45;5.70;99.90
16829;DHT22;8531;48.078;11.968;2024-03-22T03:33:10;5.70;99.90
16829;DHT22;8531;48.078;11.968;2024-03-22T03:35:36;5.70;99.90
16829;DHT22;8531;48.078;11.968;2024-03-22T03:38:02;5.70;99.90
16829;DHT22;8531;48.078;11.968;2024-03-22T03:40:27;5.60;99.90
16829;DHT22;8531;48.078;11.968;2024-03-22T03:42:53;5.60;99.90
16829;DHT22;8531;48.078;11.968;2024-03-22T03:45:19;5.60;99.90
16829;DHT22;8531;48.078;11.968;2024-03-22T03:47:45;5.60;99.90
16829;DHT22;8531;48.078;11.968;2024-03-22T03:50:12;5.60;99.90
16829;DHT22;8531;48.078;11.968;2024-03-22T03:52:38;5.60;99.90
16829;DHT22;8531;48.078;11.968;2024-03-22T03:55:04;5.50;99.90
16829;DHT22;8531;48.078;11.968;2024-03-22T03:57:29;5.50;99.90
16829;DHT22;8531;48.078;11.968;2024-03-22T03:59:55;5.50;99.90
16829;DHT22;8531;48.078;11.968;2024-03-22T04:02:20;5.40;99.90
16829;DHT22;8531;48.078;11.968;2024-03-22T04:04:46;5.40;99.90
16829;DHT22;8531;48.078;11.968;2024-03-22T04:07:12;5.40;99.90
16829;DHT22;8531;48.078;11.968;2024-03-22T04:09:38;5.40;99.90
16829;DHT22;8531;48.078;11.968;2024-03-22T04:12:03;5.50;99.90
16829;DHT22;8531;48.078;11.968;2024-03-22T04:14:29;5.40;99.90
16829;DHT22;8531;48.078;11.968;2024-03-22T04:16:55;5.40;99.90
16829;DHT22;8531;48.078;11.968;2024-03-22T04:19:21;5.40;99.90
16829;DHT22;8531;48.078;11.968;2024-03-22T04:21:47;5.40;99.90
16829;DHT22;8531;48.078;11.968;2024-03-22T04:24:13;5.30;99.90
16829;DHT22;8531;48.078;11.968;2024-03-22T04:26:39;5.30;99.90
16829;DHT22;8531;48.078;11.968;2024-03-22T04:29:04;5.30;99.90
16829;DHT22;8531;48.078;11.968;2024-03-22T04:31:30;5.30;99.90
16829;DHT22;8531;48.078;11.968;2024-03-22T04:33:56;5.30;99.90
16829;DHT22;8531;48.078;11.968;2024-03-22T04:36:21;5.20;99.90
16829;DHT22;8531;48.078;11.968;2024-03-22T04:38:47;5.20;99.90
16829;DHT22;8531;48.078;11.968;2024-03-22T04:41:13;5.20;99.90
16829;DHT22;8531;48.078;11.968;2024-03-22T04:43:39;5.20;99.90
16829;DHT22;8531;48.078;11.968;2024-03-22T04:46:04;5.30;99.90
16829;DHT22;8531;48.078;11.968;2024-03-22T04:48:30;5.40;99.90
16829;DHT22;8531;48.078;11.968;2024-03-22T04:50:56;5.40;99.90
16829;DHT22;8531;48.078;11.968;2024-03-22T04:53:21;5.40;99.90
16829;DHT22;8531;48.078;11.968;2024-03-22T04:55:47;5.40;99.90
16829;DHT22;8531;48.078;11.968;2024-03-22T04:58:20;5.40;99.90
16829;DHT22;8531;48.078;11.968;2024-03-22T05:00:55;5.40;99.90
16829;DHT22;8531;48.078;11.968;2024-03-22T05:03:21;5.50;99.90
16829;DHT22;8531;48.078;11.968;2024-03-22T05:05:47;5.40;99.90
16829;DHT22;8531;48.078;11.968;2024-03-22T05:08:13;5.50;99.90
16829;DHT22;8531;48.078;11.968;2024-03-22T05:10:38;5.50;99.90
16829;DHT22;8531;48.078;11.968;2024-03-22T05:13:04;5.40;99.90
16829;DHT22;8531;48.078;11.968;2024-03-22T05:15:29;5.40;99.90
16829;DHT22;8531;48.078;11.968;2024-03-22T05:17:57;5.50;99.90
16829;DHT22;8531;48.078;11.968;2024-03-22T05:20:22;5.40;99.90
16829;DHT22;8531;48.078;11.968;2024-03-22T05:22:48;5.40;99.90
16829;DHT22;8531;48.078;11.968;2024-03-22T05:25:14;5.50;99.90
16829;DHT22;8531;48.078;11.968;2024-03-22T05:27:41;5.40;99.90
16829;DHT22;8531;48.078;11.968;2024-03-22T05:30:10;5.40;99.90
16829;DHT22;8531;48.078;11.968;2024-03-22T05:32:36;5.50;99.90
16829;DHT22;8531;48.078;11.968;2024-03-22T05:35:01;5.40;99.90
16829;DHT22;8531;48.078;11.968;2024-03-22T05:37:27;5.40;99.90
16829;DHT22;8531;48.078;11.968;2024-03-22T05:39:53;5.40;99.90
16829;DHT22;8531;48.078;11.968;2024-03-22T05:42:18;5.50;99.90
16829;DHT22;8531;48.078;11.968;2024-03-22T05:44:44;5.50;99.90
16829;DHT22;8531;48.078;11.968;2024-03-22T05:47:10;5.50;99.90
16829;DHT22;8531;48.078;11.968;2024-03-22T05:49:36;5.60;99.90
16829;DHT22;8531;48.078;11.968;2024-03-22T05:52:02;5.70;99.90
16829;DHT22;8531;48.078;11.968;2024-03-22T05:54:27;5.90;99.90
16829;DHT22;8531;48.078;11.968;2024-03-22T05:56:53;6.00;99.90
16829;DHT22;8531;48.078;11.968;2024-03-22T05:59:18;6.10;99.90
16829;DHT22;8531;48.078;11.968;2024-03-22T06:01:44;6.20;99.90
16829;DHT22;8531;48.078;11.968;2024-03-22T06:04:10;6.30;99.90
16829;DHT22;8531;48.078;11.968;2024-03-22T06:06:35;6.40;99.90
16829;DHT22;8531;48.078;11.968;2024-03-22T06:09:02;6.40;99.90
16829;DHT22;8531;48.078;11.968;2024-03-22T06:11:34;6.50;99.90
16829;DHT22;8531;48.078;11.968;2024-03-22T06:14:00;6.50;99.90
16829;DHT22;8531;48.078;11.968;2024-03-22T06:16:26;6.60;99.90
16829;DHT22;8531;48.078;11.968;2024-03-22T06:18:51;6.60;99.90
16829;DHT22;8531;48.078;11.968;2024-03-22T06:21:17;6.70;99.90
16829;DHT22;8531;48.078;11.968;2024-03-22T06:23:50;6.70;99.90
16829;DHT22;8531;48.078;11.968;2024-03-22T06:26:16;6.80;99.90
16829;DHT22;8531;48.078;11.968;2024-03-22T06:28:42;6.80;99.90
16829;DHT22;8531;48.078;11.968;2024-03-22T06:31:07;6.90;99.90
16829;DHT22;8531;48.078;11.968;2024-03-22T06:33:33;6.90;99.90
16829;DHT22;8531;48.078;11.968;2024-03-22T06:35:59;6.90;99.90
16829;DHT22;8531;48.078;11.968;2024-03-22T06:38:25;7.00;99.90
16829;DHT22;8531;48.078;11.968;2024-03-22T06:40:51;7.00;99.90
16829;DHT22;8531;48.078;11.968;2024-03-22T06:43:17;7.00;99.90
16829;DHT22;8531;48.078;11.968;2024-03-22T06:45:42;7.00;99.90
16829;DHT22;8531;48.078;11.968;2024-03-22T06:48:08;7.10;99.90
16829;DHT22;8531;48.078;11.968;2024-03-22T06:50:33;7.20;99.90
16829;DHT22;8531;48.078;11.968;2024-03-22T06:52:59;7.20;99.90
16829;DHT22;8531;48.078;11.968;2024-03-22T06:55:25;7.20;99.90
16829;DHT22;8531;48.078;11.968;2024-03-22T06:57:51;7.20;99.90
16829;DHT22;8531;48.078;11.968;2024-03-22T07:00:19;7.20;99.90
16829;DHT22;8531;48.078;11.968;2024-03-22T07:02:45;7.20;99.90
16829;DHT22;8531;48.078;11.968;2024-03-22T07:05:11;7.20;99.90
16829;DHT22;8531;48.078;11.968;2024-03-22T07:07:37;7.20;99.90
16829;DHT22;8531;48.078;11.968;2024-03-22T07:10:04;7.20;99.90
16829;DHT22;8531;48.078;11.968;2024-03-22T07:12:32;7.20;99.90
16829;DHT22;8531;48.078;11.968;2024-03-22T07:15:00;7.20;99.90
16829;DHT22;8531;48.078;11.968;2024-03-22T07:17:26;7.20;99.90
16829;DHT22;8531;48.078;11.968;2024-03-22T07:19:52;7.20;99.90
16829;DHT22;8531;48.078;11.968;2024-03-22T07:22:18;7.40;99.90
16829;DHT22;8531;48.078;11.968;2024-03-22T07:24:44;7.60;99.90
16829;DHT22;8531;48.078;11.968;2024-03-22T07:27:10;7.70;99.90
16829;DHT22;8531;48.078;11.968;2024-03-22T07:29:36;8.00;99.90
16829;DHT22;8531;48.078;11.968;2024-03-22T07:32:02;8.30;99.90
16829;DHT22;8531;48.078;11.968;2024-03-22T07:34:29;8.50;99.90
16829;DHT22;8531;48.078;11.968;2024-03-22T07:36:54;8.70;99.90
16829;DHT22;8531;48.078;11.968;2024-03-22T07:39:20;8.80;99.90
16829;DHT22;8531;48.078;11.968;2024-03-22T07:41:46;8.90;99.90
16829;DHT22;8531;48.078;11.968;2024-03-22T07:44:11;9.10;99.90
16829;DHT22;8531;48.078;11.968;2024-03-22T07:46:37;9.30;99.90
16829;DHT22;8531;48.078;11.968;2024-03-22T07:49:03;9.60;99.90
16829;DHT22;8531;48.078;11.968;2024-03-22T07:51:30;9.80;99.90
16829;DHT22;8531;48.078;11.968;2024-03-22T07:53:55;10.10;99.90
16829;DHT22;8531;48.078;11.968;2024-03-22T07:56:21;10.20;99.90
16829;DHT22;8531;48.078;11.968;2024-03-22T07:58:47;10.20;99.90
16829;DHT22;8531;48.078;11.968;2024-03-22T08:01:13;10.20;99.90
16829;DHT22;8531;48.078;11.968;2024-03-22T08:03:38;10.30;99.90
16829;DHT22;8531;48.078;11.968;2024-03-22T08:06:04;10.20;99.90
16829;DHT22;8531;48.078;11.968;2024-03-22T08:08:30;10.30;99.90
16829;DHT22;8531;48.078;11.968;2024-03-22T08:10:55;10.40;99.90
16829;DHT22;8531;48.078;11.968;2024-03-22T08:13:21;10.50;99.90
16829;DHT22;8531;48.078;11.968;2024-03-22T08:15:47;10.50;99.90
16829;DHT22;8531;48.078;11.968;2024-03-22T08:18:12;10.50;99.90
16829;DHT22;8531;48.078;11.968;2024-03-22T08:20:38;10.60;99.90
16829;DHT22;8531;48.078;11.968;2024-03-22T08:23:05;10.70;99.90
16829;DHT22;8531;48.078;11.968;2024-03-22T08:25:31;10.80;99.90
16829;DHT22;8531;48.078;11.968;2024-03-22T08:27:57;10.70;99.90
16829;DHT22;8531;48.078;11.968;2024-03-22T08:30:23;10.90;99.90
16829;DHT22;8531;48.078;11.968;2024-03-22T08:32:50;10.90;99.90
16829;DHT22;8531;48.078;11.968;2024-03-22T08:35:16;11.10;99.90
16829;DHT22;8531;48.078;11.968;2024-03-22T08:37:42;11.20;99.90
16829;DHT22;8531;48.078;11.968;2024-03-22T08:40:08;11.30;99.90
16829;DHT22;8531;48.078;11.968;2024-03-22T08:42:33;11.40;99.90
16829;DHT22;8531;48.078;11.968;2024-03-22T08:44:59;11.60;99.90
16829;DHT22;8531;48.078;11.968;2024-03-22T08:47:25;11.80;99.90
16829;DHT22;8531;48.078;11.968;2024-03-22T08:49:51;12.10;99.90
16829;DHT22;8531;48.078;11.968;2024-03-22T08:52:16;12.30;99.90
16829;DHT22;8531;48.078;11.968;2024-03-22T08:54:42;12.50;99.90
16829;DHT22;8531;48.078;11.968;2024-03-22T08:57:08;12.80;99.90
16829;DHT22;8531;48.078;11.968;2024-03-22T08:59:33;12.90;99.90
16829;DHT22;8531;48.078;11.968;2024-03-22T09:02:00;13.10;99.90
16829;DHT22;8531;48.078;11.968;2024-03-22T09:04:26;13.30;99.90
16829;DHT22;8531;48.078;11.968;2024-03-22T09:06:51;13.40;99.90
16829;DHT22;8531;48.078;11.968;2024-03-22T09:09:17;13.60;99.90
16829;DHT22;8531;48.078;11.968;2024-03-22T09:11:43;13.60;99.90
16829;DHT22;8531;48.078;11.968;2024-03-22T09:14:09;13.60;99.90
16829;DHT22;8531;48.078;11.968;2024-03-22T09:16:35;13.70;99.90
16829;DHT22;8531;48.078;11.968;2024-03-22T09:19:00;13.70;99.90
16829;DHT22;8531;48.078;11.968;2024-03-22T09:21:26;13.70;99.90
16829;DHT22;8531;48.078;11.968;2024-03-22T09:23:52;13.80;99.90
16829;DHT22;8531;48.078;11.968;2024-03-22T09:26:17;14.00;99.90
16829;DHT22;8531;48.078;11.968;2024-03-22T09:28:46;14.10;99.90
16829;DHT22;8531;48.078;11.968;2024-03-22T09:31:11;14.30;99.90
16829;DHT22;8531;48.078;11.968;2024-03-22T09:33:37;14.40;99.90
16829;DHT22;8531;48.078;11.968;2024-03-22T09:36:03;14.50;99.90
16829;DHT22;8531;48.078;11.968;2024-03-22T09:38:33;14.60;99.90
16829;DHT22;8531;48.078;11.968;2024-03-22T09:40:59;14.80;99.90
16829;DHT22;8531;48.078;11.968;2024-03-22T09:43:27;15.00;99.90
16829;DHT22;8531;48.078;11.968;2024-03-22T09:45:56;15.00;99.90
16829;DHT22;8531;48.078;11.968;2024-03-22T09:48:23;15.10;99.90
16829;DHT22;8531;48.078;11.968;2024-03-22T09:50:50;15.10;99.90
16829;DHT22;8531;48.078;11.968;2024-03-22T09:53:19;15.00;99.90
16829;DHT22;8531;48.078;11.968;2024-03-22T09:55:47;15.10;99.90
16829;DHT22;8531;48.078;11.968;2024-03-22T09:58:13;15.10;99.90
16829;DHT22;8531;48.078;11.968;2024-03-22T10:00:39;15.20;99.90
16829;DHT22;8531;48.078;11.968;2024-03-22T10:03:06;15.40;99.90
16829;DHT22;8531;48.078;11.968;2024-03-22T10:05:33;15.70;99.90
16829;DHT22;8531;48.078;11.968;2024-03-22T10:07:58;15.70;99.90
16829;DHT22;8531;48.078;11.968;2024-03-22T10:10:25;15.80;99.90
16829;DHT22;8531;48.078;11.968;2024-03-22T10:12:51;16.00;99.90
16829;DHT22;8531;48.078;11.968;2024-03-22T10:15:18;16.20;99.90
16829;DHT22;8531;48.078;11.968;2024-03-22T10:17:44;16.50;99.90
16829;DHT22;8531;48.078;11.968;2024-03-22T10:20:13;16.60;99.90
16829;DHT22;8531;48.078;11.968;2024-03-22T10:22:58;16.80;99.90
16829;DHT22;8531;48.078;11.968;2024-03-22T10:25:26;17.10;99.90
16829;DHT22;8531;48.078;11.968;2024-03-22T10:27:54;17.20;99.90
16829;DHT22;8531;48.078;11.968;2024-03-22T10:30:21;17.30;99.90
16829;DHT22;8531;48.078;11.968;2024-03-22T10:32:46;17.20;99.90
16829;DHT22;8531;48.078;11.968;2024-03-22T10:35:14;17.20;99.90
16829;DHT22;8531;48.078;11.968;2024-03-22T10:37:40;17.10;99.90
16829;DHT22;8531;48.078;11.968;2024-03-22T10:40:07;17.00;99.90
16829;DHT22;8531;48.078;11.968;2024-03-22T10:42:34;17.20;99.90
16829;DHT22;8531;48.078;11.968;2024-03-22T10:45:00;17.40;99.90
16829;DHT22;8531;48.078;11.968;2024-03-22T10:47:30;17.70;99.90
16829;DHT22;8531;48.078;11.968;2024-03-22T10:50:12;17.80;99.90
16829;DHT22;8531;48.078;11.968;2024-03-22T10:52:57;18.10;99.90
16829;DHT22;8531;48.078;11.968;2024-03-22T10:55:25;18.20;99.90
16829;DHT22;8531;48.078;11.968;2024-03-22T10:57:58;18.30;99.90
16829;DHT22;8531;48.078;11.968;2024-03-22T11:00:31;18.30;99.90
16829;DHT22;8531;48.078;11.968;2024-03-22T11:02:57;18.10;99.90
16829;DHT22;8531;48.078;11.968;2024-03-22T11:05:23;17.70;99.90
16829;DHT22;8531;48.078;11.968;2024-03-22T11:08:04;17.60;99.90
16829;DHT22;8531;48.078;11.968;2024-03-22T11:10:36;17.50;99.90
16829;DHT22;8531;48.078;11.968;2024-03-22T11:13:04;17.40;99.90
16829;DHT22;8531;48.078;11.968;2024-03-22T11:15:30;17.70;99.90
16829;DHT22;8531;48.078;11.968;2024-03-22T11:17:59;18.10;99.90
16829;DHT22;8531;48.078;11.968;2024-03-22T11:20:26;18.20;99.90
16829;DHT22;8531;48.078;11.968;2024-03-22T11:22:52;18.00;99.90
16829;DHT22;8531;48.078;11.968;2024-03-22T11:25:19;17.90;99.90
16829;DHT22;8531;48.078;11.968;2024-03-22T11:27:45;17.70;99.90
16829;DHT22;8531;48.078;11.968;2024-03-22T11:30:11;17.40;99.90
16829;DHT22;8531;48.078;11.968;2024-03-22T11:32:40;17.40;99.90
16829;DHT22;8531;48.078;11.968;2024-03-22T11:35:11;17.40;99.90
16829;DHT22;8531;48.078;11.968;2024-03-22T11:37:40;17.50;99.90
16829;DHT22;8531;48.078;11.968;2024-03-22T11:40:08;17.20;99.90
16829;DHT22;8531;48.078;11.968;2024-03-22T11:42:38;17.40;99.90
16829;DHT22;8531;48.078;11.968;2024-03-22T11:45:05;17.60;99.90
16829;DHT22;8531;48.078;11.968;2024-03-22T11:47:33;17.60;99.90
16829;DHT22;8531;48.078;11.968;2024-03-22T11:49:59;17.60;99.90
16829;DHT22;8531;48.078;11.968;2024-03-22T11:52:25;17.50;99.90
16829;DHT22;8531;48.078;11.968;2024-03-22T11:54:54;17.70;99.90
16829;DHT22;8531;48.078;11.968;2024-03-22T11:57:23;17.80;99.90
16829;DHT22;8531;48.078;11.968;2024-03-22T11:59:50;17.60;99.90
16829;DHT22;8531;48.078;11.968;2024-03-22T12:02:16;17.80;99.90
16829;DHT22;8531;48.078;11.968;2024-03-22T12:04:43;18.20;99.90
16829;DHT22;8531;48.078;11.968;2024-03-22T12:07:16;18.50;99.90
16829;DHT22;8531;48.078;11.968;2024-03-22T12:09:43;18.70;99.90
16829;DHT22;8531;48.078;11.968;2024-03-22T12:12:11;18.90;99.90
16829;DHT22;8531;48.078;11.968;2024-03-22T12:14:37;18.90;99.90
16829;DHT22;8531;48.078;11.968;2024-03-22T12:17:03;19.20;99.90
16829;DHT22;8531;48.078;11.968;2024-03-22T12:19:29;19.50;99.90
16829;DHT22;8531;48.078;11.968;2024-03-22T12:21:54;19.50;99.90
16829;DHT22;8531;48.078;11.968;2024-03-22T12:24:21;19.70;99.90
16829;DHT22;8531;48.078;11.968;2024-03-22T12:26:47;20.10;99.90
16829;DHT22;8531;48.078;11.968;2024-03-22T12:29:15;20.40;99.90
16829;DHT22;8531;48.078;11.968;2024-03-22T12:31:41;20.70;99.90
16829;DHT22;8531;48.078;11.968;2024-03-22T12:34:07;20.80;99.90
16829;DHT22;8531;48.078;11.968;2024-03-22T12:36:32;20.70;99.90
16829;DHT22;8531;48.078;11.968;2024-03-22T12:38:58;20.40;99.90
16829;DHT22;8531;48.078;11.968;2024-03-22T12:41:25;20.50;99.90
16829;DHT22;8531;48.078;11.968;2024-03-22T12:43:51;20.40;99.90
16829;DHT22;8531;48.078;11.968;2024-03-22T12:46:16;20.40;99.90
16829;DHT22;8531;48.078;11.968;2024-03-22T12:48:42;20.50;99.90
16829;DHT22;8531;48.078;11.968;2024-03-22T12:51:08;20.50;99.90
16829;DHT22;8531;48.078;11.968;2024-03-22T12:53:34;20.40;99.90
16829;DHT22;8531;48.078;11.968;2024-03-22T12:56:01;20.10;99.90
16829;DHT22;8531;48.078;11.968;2024-03-22T12:58:30;19.10;99.90
16829;DHT22;8531;48.078;11.968;2024-03-22T13:00:56;18.80;99.90
16829;DHT22;8531;48.078;11.968;2024-03-22T13:03:21;19.10;99.90
16829;DHT22;8531;48.078;11.968;2024-03-22T13:05:47;19.40;99.90
16829;DHT22;8531;48.078;11.968;2024-03-22T13:08:13;19.40;99.90
16829;DHT22;8531;48.078;11.968;2024-03-22T13:10:39;19.30;99.90
16829;DHT22;8531;48.078;11.968;2024-03-22T13:13:09;19.40;99.90
16829;DHT22;8531;48.078;11.968;2024-03-22T13:15:34;19.70;99.90
16829;DHT22;8531;48.078;11.968;2024-03-22T13:18:02;19.90;99.90
16829;DHT22;8531;48.078;11.968;2024-03-22T13:20:28;20.10;99.90
16829;DHT22;8531;48.078;11.968;2024-03-22T13:22:53;20.20;99.90
16829;DHT22;8531;48.078;11.968;2024-03-22T13:25:19;20.30;99.90
16829;DHT22;8531;48.078;11.968;2024-03-22T13:27:45;20.20;99.90
16829;DHT22;8531;48.078;11.968;2024-03-22T13:30:11;20.10;99.90
16829;DHT22;8531;48.078;11.968;2024-03-22T13:32:37;19.90;99.90
16829;DHT22;8531;48.078;11.968;2024-03-22T13:35:04;20.20;99.90
16829;DHT22;8531;48.078;11.968;2024-03-22T13:37:30;20.30;99.90
16829;DHT22;8531;48.078;11.968;2024-03-22T13:39:56;20.30;99.90
16829;DHT22;8531;48.078;11.968;2024-03-22T13:42:22;20.40;99.90
16829;DHT22;8531;48.078;11.968;2024-03-22T13:44:48;20.30;99.90
16829;DHT22;8531;48.078;11.968;2024-03-22T13:47:13;20.40;99.90
16829;DHT22;8531;48.078;11.968;2024-03-22T13:49:39;20.50;99.90
16829;DHT22;8531;48.078;11.968;2024-03-22T13:52:08;20.60;99.90
16829;DHT22;8531;48.078;11.968;2024-03-22T13:54:34;20.80;99.90
16829;DHT22;8531;48.078;11.968;2024-03-22T13:57:00;20.90;99.90
16829;DHT22;8531;48.078;11.968;2024-03-22T13:59:27;20.80;99.90
16829;DHT22;8531;48.078;11.968;2024-03-22T14:01:53;20.40;99.90
16829;DHT22;8531;48.078;11.968;2024-03-22T14:04:19;20.30;99.90
16829;DHT22;8531;48.078;11.968;2024-03-22T14:06:47;20.00;99.90
16829;DHT22;8531;48.078;11.968;2024-03-22T14:09:13;19.90;99.90
16829;DHT22;8531;48.078;11.968;2024-03-22T14:11:39;19.90;99.90
16829;DHT22;8531;48.078;11.968;2024-03-22T14:14:05;19.90;99.90
16829;DHT22;8531;48.078;11.968;2024-03-22T14:16:32;19.90;99.90
16829;DHT22;8531;48.078;11.968;2024-03-22T14:18:58;19.90;99.90
16829;DHT22;8531;48.078;11.968;2024-03-22T14:21:24;20.00;99.90
16829;DHT22;8531;48.078;11.968;2024-03-22T14:23:50;20.10;99.90
16829;DHT22;8531;48.078;11.968;2024-03-22T14:26:17;20.30;99.90
16829;DHT22;8531;48.078;11.968;2024-03-22T14:28:44;20.40;99.90
16829;DHT22;8531;48.078;11.968;2024-03-22T14:31:10;20.50;99.90
16829;DHT22;8531;48.078;11.968;2024-03-22T14:33:36;20.60;99.90
16829;DHT22;8531;48.078;11.968;2024-03-22T14:36:06;20.80;99.90
16829;DHT22;8531;48.078;11.968;2024-03-22T14:38:32;20.80;99.90
16829;DHT22;8531;48.078;11.968;2024-03-22T14:40:58;20.60;99.90
16829;DHT22;8531;48.078;11.968;2024-03-22T14:43:25;20.50;99.90
16829;DHT22;8531;48.078;11.968;2024-03-22T14:45:55;20.50;99.90
16829;DHT22;8531;48.078;11.968;2024-03-22T14:48:21;20.50;99.90
16829;DHT22;8531;48.078;11.968;2024-03-22T14:50:48;20.70;99.90
16829;DHT22;8531;48.078;11.968;2024-03-22T14:53:14;20.90;99.90
16829;DHT22;8531;48.078;11.968;2024-03-22T14:55:54;20.80;99.90
16829;DHT22;8531;48.078;11.968;2024-03-22T14:58:26;20.60;99.90
16829;DHT22;8531;48.078;11.968;2024-03-22T15:00:56;20.50;99.90
16829;DHT22;8531;48.078;11.968;2024-03-22T15:03:22;20.40;99.90
16829;DHT22;8531;48.078;11.968;2024-03-22T15:05:50;20.30;99.90
16829;DHT22;8531;48.078;11.968;2024-03-22T15:08:16;20.30;99.90
16829;DHT22;8531;48.078;11.968;2024-03-22T15:10:41;20.30;99.90
16829;DHT22;8531;48.078;11.968;2024-03-22T15:13:07;20.30;99.90
16829;DHT22;8531;48.078;11.968;2024-03-22T15:15:33;20.40;99.90
16829;DHT22;8531;48.078;11.968;2024-03-22T15:17:59;20.30;99.90
16829;DHT22;8531;48.078;11.968;2024-03-22T15:20:25;20.40;99.90
16829;DHT22;8531;48.078;11.968;2024-03-22T15:22:53;20.40;99.90
16829;DHT22;8531;48.078;11.968;2024-03-22T15:25:19;20.40;99.90
16829;DHT22;8531;48.078;11.968;2024-03-22T15:27:44;20.10;99.90
16829;DHT22;8531;48.078;11.968;2024-03-22T15:30:11;20.00;99.90
16829;DHT22;8531;48.078;11.968;2024-03-22T15:32:36;19.90;99.90